METAR Data
IDs: Format: Raw Decoded Include TAF

Data at: 0756 UTC 03 Aug 2021

KAUN 030735Z AUTO 00000KT 10SM CLR 20/02 A3003 RMK A01
KAUN 030715Z AUTO 00000KT 10SM CLR 22/03 A3003 RMK A01
KAUN 030655Z AUTO 00000KT 10SM CLR 22/03 A3003 RMK A01
KAUN 030635Z AUTO 00000KT 10SM CLR 22/02 A3003 RMK A01
KAUN 030615Z AUTO 00000KT 10SM CLR 23/02 A3003 RMK A01
KAUN 030555Z AUTO 00000KT 10SM CLR 24/01 A3003 RMK A01
KAUN 030535Z AUTO 00000KT 10SM CLR 21/01 A3004 RMK A01
KAUN 030515Z AUTO 00000KT 10SM CLR 21/01 A3004 RMK A01
KAUN 030455Z AUTO 00000KT 10SM CLR 23/01 A3004 RMK A01
KAUN 030435Z AUTO 00000KT 10SM CLR 24/02 A3004 RMK A01
KAUN 030415Z AUTO 00000KT 10SM CLR 23/02 A3004 RMK A01
KAUN 030355Z AUTO 00000KT 10SM CLR 24/01 A3004 RMK A01
KAUN 030335Z AUTO 00000KT 10SM CLR 25/01 A3004 RMK A01
KAUN 030315Z AUTO 00000KT 10SM CLR 27/02 A3005 RMK A01
KAUN 030255Z AUTO 27003KT 10SM CLR 29/02 A3004 RMK A01
KAUN 030235Z AUTO 25003KT 10SM CLR 30/02 A3004 RMK A01
KAUN 030215Z AUTO 26004KT 10SM CLR 31/02 A3004 RMK A01
KAUN 030155Z AUTO 27003KT 10SM CLR 32/03 A3004 RMK A01
KAUN 030135Z AUTO 27006KT 10SM CLR 33/03 A3005 RMK A01
KAUN 030115Z AUTO 25005KT 10SM CLR 32/04 A3005 RMK A01
KAUN 030055Z AUTO 25005KT 10SM CLR 32/04 A3005 RMK A01
KAUN 030035Z AUTO 23005KT 10SM CLR 32/04 A3005 RMK A01
KAUN 030015Z AUTO 23006KT 10SM CLR 33/05 A3006 RMK A01
KAUN 022355Z AUTO 29005KT 10SM CLR 33/04 A3006 RMK A01
KAUN 022335Z AUTO VRB05KT 10SM CLR 33/04 A3006 RMK A01
KAUN 022315Z AUTO VRB04KT 10SM CLR 34/04 A3007 RMK A01
KAUN 022255Z AUTO 28004KT 10SM CLR 33/04 A3007 RMK A01
KAUN 022235Z AUTO VRB03KT 10SM CLR 33/04 A3008 RMK A01
KAUN 022215Z AUTO 24005KT 10SM CLR 33/06 A3009 RMK A01
KAUN 022155Z AUTO 21005G10KT 10SM CLR 33/06 A3009 RMK A01
KAUN 022135Z AUTO VRB06KT 10SM CLR 32/06 A3009 RMK A01
KAUN 022115Z AUTO 22005KT 10SM CLR 32/06 A3010 RMK A01
KAUN 022055Z AUTO 24006KT 10SM CLR 32/06 A3011 RMK A01
KAUN 022035Z AUTO 00000KT 10SM CLR 31/06 A3011 RMK A01
KAUN 022015Z AUTO VRB05KT 10SM CLR 31/07 A3011 RMK A01
KAUN 021955Z AUTO 25005KT 10SM CLR 30/07 A3011 RMK A01
KAUN 021935Z AUTO 24006KT 10SM CLR 30/08 A3011 RMK A01
KAUN 021915Z AUTO VRB05KT 10SM CLR 29/08 A3012 RMK A01
KAUN 021855Z AUTO 23005KT 10SM CLR 29/09 A3012 RMK A01
KAUN 021835Z AUTO 26006KT 10SM CLR 29/09 A3012 RMK A01
KAUN 021815Z AUTO 27006KT 10SM CLR 28/09 A3012 RMK A01
KAUN 021755Z AUTO VRB04KT 10SM CLR 28/08 A3012 RMK A01
KAUN 021735Z AUTO 22005KT 10SM CLR 28/08 A3012 RMK A01
KAUN 021715Z AUTO VRB04KT 10SM CLR 28/06 A3011 RMK A01
KAUN 021655Z AUTO VRB03KT 10SM CLR 28/05 A3011 RMK A01
KAUN 021635Z AUTO 00000KT 10SM CLR 27/04 A3012 RMK A01
KAUN 021615Z AUTO 00000KT 10SM CLR 26/03 A3011 RMK A01
KAUN 021555Z AUTO 00000KT 10SM CLR 25/04 A3012 RMK A01
KAUN 021535Z AUTO 00000KT 10SM CLR 24/05 A3012 RMK A01
KAUN 021515Z AUTO 00000KT 10SM CLR 23/08 A3012 RMK A01
KAUN 021455Z AUTO 00000KT 10SM CLR 22/08 A3012 RMK A01
KAUN 021435Z AUTO 00000KT 10SM CLR 20/08 A3011 RMK A01
KAUN 021415Z AUTO 00000KT 10SM CLR 20/08 A3011 RMK A01
KAUN 021355Z AUTO 00000KT 10SM CLR 18/08 A3010 RMK A01
KAUN 021335Z AUTO 00000KT 10SM CLR 16/06 A3010 RMK A01
KAUN 021315Z AUTO 00000KT 10SM CLR 18/07 A3009 RMK A01
KAUN 021255Z AUTO 00000KT 10SM CLR 17/07 A3008 RMK A01
KAUN 021235Z AUTO 00000KT 10SM CLR 17/07 A3008 RMK A01
KAUN 021215Z AUTO 00000KT 10SM CLR 16/06 A3008 RMK A01
KAUN 021155Z AUTO 00000KT 10SM CLR 18/06 A3008 RMK A01
KAUN 021135Z AUTO 00000KT 10SM CLR 19/06 A3008 RMK A01
KAUN 021115Z AUTO 13003KT 10SM CLR 19/06 A3007 RMK A01
KAUN 021055Z AUTO 00000KT 10SM CLR 19/06 A3007 RMK A01
KAUN 021035Z AUTO 12006KT 10SM CLR 19/05 A3007 RMK A01
KAUN 021015Z AUTO 12005KT 10SM CLR 19/05 A3007 RMK A01
KAUN 020955Z AUTO 12004KT 10SM CLR 20/05 A3008 RMK A01
KAUN 020935Z AUTO 14003KT 10SM CLR 21/04 A3008 RMK A01
KAUN 020915Z AUTO 14005KT 10SM CLR 21/05 A3008 RMK A01
KAUN 020855Z AUTO 14005KT 10SM CLR 21/05 A3007 RMK A01
KAUN 020835Z AUTO 14005KT 10SM CLR 22/05 A3007 RMK A01
KAUN 020815Z AUTO 14005KT 10SM CLR 22/06 A3008 RMK A01
KAUN 020755Z AUTO 14005KT 10SM CLR 22/06 A3007 RMK A01
KAUN 020735Z AUTO 13004KT 10SM CLR 23/06 A3007 RMK A01
KAUN 020715Z AUTO 13004KT 10SM CLR 23/07 A3007 RMK A01
KAUN 020655Z AUTO 13006KT 10SM CLR 24/06 A3007 RMK A01
KAUN 020635Z AUTO 12005KT 10SM CLR 24/06 A3007 RMK A01
KAUN 020615Z AUTO 12004KT 10SM CLR 24/06 A3007 RMK A01
KAUN 020555Z AUTO 14005KT 10SM CLR 25/06 A3007 RMK A01
KAUN 020535Z AUTO 14006KT 10SM CLR 25/06 A3007 RMK A01
KAUN 020515Z AUTO 13006KT 10SM CLR 25/06 A3006 RMK A01
KAUN 020455Z AUTO 13005KT 10SM CLR 26/06 A3006 RMK A01
KAUN 020435Z AUTO 13005KT 10SM CLR 26/06 A3005 RMK A01
KAUN 020415Z AUTO 14004KT 10SM CLR 27/06 A3005 RMK A01
KAUN 020355Z AUTO 17003KT 10SM CLR 27/05 A3004 RMK A01
KAUN 020335Z AUTO 17005KT 10SM CLR 28/06 A3004 RMK A01
KAUN 020315Z AUTO 17007KT 10SM CLR 29/08 A3003 RMK A01
KAUN 020255Z AUTO 20006KT 10SM CLR 31/08 A3003 RMK A01
KAUN 020235Z AUTO 25006KT 10SM CLR 32/09 A3002 RMK A01
KAUN 020215Z AUTO 24006KT 10SM CLR 33/10 A3001 RMK A01
KAUN 020155Z AUTO 24005KT 10SM CLR 33/10 A3001 RMK A01
KAUN 020135Z AUTO 23004KT 10SM CLR 34/10 A3001 RMK A01
KAUN 020115Z AUTO 27006KT 10SM CLR 34/11 A3001 RMK A01
KAUN 020055Z AUTO 21005KT 10SM CLR 34/10 A3001 RMK A01
KAUN 020035Z AUTO VRB03KT 10SM CLR 34/11 A3002 RMK A01
KAUN 020015Z AUTO 27006KT 10SM CLR 34/10 A3002 RMK A01
KAUN 012355Z AUTO 25005KT 10SM CLR 35/09 A3002 RMK A01
KAUN 012335Z AUTO 27006KT 10SM CLR 35/09 A3002 RMK A01
KAUN 012315Z AUTO 27006KT 10SM CLR 35/08 A3002 RMK A01
KAUN 012255Z AUTO 29006KT 10SM CLR 35/07 A3002 RMK A01
KAUN 012235Z AUTO 29006KT 10SM CLR 35/06 A3003 RMK A01
KAUN 012215Z AUTO 26007KT 10SM CLR 35/06 A3003 RMK A01
KAUN 012155Z AUTO 27008KT 10SM CLR 35/08 A3004 RMK A01
KAUN 012135Z AUTO 28005KT 10SM CLR 35/07 A3004 RMK A01
KAUN 012115Z AUTO 26007KT 10SM CLR 34/08 A3005 RMK A01
KAUN 012055Z AUTO 24007KT 10SM CLR 34/08 A3005 RMK A01
KAUN 012035Z AUTO 25007KT 10SM CLR 33/09 A3006 RMK A01
KAUN 012015Z AUTO VRB06KT 10SM CLR 34/10 A3006 RMK A01